sensor_id;sensor_type;location;lat;lon;timestamp;temperature;humidity
3416;DHT22;1721;51.238;9.562;2023-12-14T00:02:17;10.10;94.60
3416;DHT22;1721;51.238;9.562;2023-12-14T00:04:45;10.10;94.70
3416;DHT22;1721;51.238;9.562;2023-12-14T00:07:11;10.10;94.60
3416;DHT22;1721;51.238;9.562;2023-12-14T00:09:44;10.20;94.60
3416;DHT22;1721;51.238;9.562;2023-12-14T00:12:18;10.10;94.60
3416;DHT22;1721;51.238;9.562;2023-12-14T00:14:44;10.20;94.60
3416;DHT22;1721;51.238;9.562;2023-12-14T00:17:12;10.20;94.60
3416;DHT22;1721;51.238;9.562;2023-12-14T00:19:38;10.00;94.40
3416;DHT22;1721;51.238;9.562;2023-12-14T00:22:15;10.00;94.60
3416;DHT22;1721;51.238;9.562;2023-12-14T00:24:46;10.00;94.60
3416;DHT22;1721;51.238;9.562;2023-12-14T00:27:15;10.00;94.70
3416;DHT22;1721;51.238;9.562;2023-12-14T00:29:41;10.00;94.70
3416;DHT22;1721;51.238;9.562;2023-12-14T00:32:07;10.10;94.70
3416;DHT22;1721;51.238;9.562;2023-12-14T00:34:33;10.10;94.60
3416;DHT22;1721;51.238;9.562;2023-12-14T00:37:05;10.20;94.60
3416;DHT22;1721;51.238;9.562;2023-12-14T00:39:34;10.20;94.90
3416;DHT22;1721;51.238;9.562;2023-12-14T00:42:04;10.20;94.50
3416;DHT22;1721;51.238;9.562;2023-12-14T00:44:33;10.30;94.60
3416;DHT22;1721;51.238;9.562;2023-12-14T00:47:01;10.10;94.30
3416;DHT22;1721;51.238;9.562;2023-12-14T00:49:28;10.10;94.60
3416;DHT22;1721;51.238;9.562;2023-12-14T00:52:03;10.00;94.60
3416;DHT22;1721;51.238;9.562;2023-12-14T00:54:30;10.10;94.70
3416;DHT22;1721;51.238;9.562;2023-12-14T00:56:59;10.10;94.60
3416;DHT22;1721;51.238;9.562;2023-12-14T00:59:25;10.10;94.60
3416;DHT22;1721;51.238;9.562;2023-12-14T01:01:51;10.20;94.70
3416;DHT22;1721;51.238;9.562;2023-12-14T01:04:20;10.30;94.60
3416;DHT22;1721;51.238;9.562;2023-12-14T01:06:49;10.30;94.60
3416;DHT22;1721;51.238;9.562;2023-12-14T01:09:17;10.30;94.50
3416;DHT22;1721;51.238;9.562;2023-12-14T01:11:48;10.30;94.60
3416;DHT22;1721;51.238;9.562;2023-12-14T01:14:14;10.30;94.60
3416;DHT22;1721;51.238;9.562;2023-12-14T01:16:44;10.20;94.50
3416;DHT22;1721;51.238;9.562;2023-12-14T01:19:12;10.20;94.50
3416;DHT22;1721;51.238;9.562;2023-12-14T01:21:44;10.20;94.80
3416;DHT22;1721;51.238;9.562;2023-12-14T01:24:15;10.20;94.70
3416;DHT22;1721;51.238;9.562;2023-12-14T01:26:44;10.20;94.60
3416;DHT22;1721;51.238;9.562;2023-12-14T01:29:14;10.20;94.50
3416;DHT22;1721;51.238;9.562;2023-12-14T01:31:45;10.20;94.80
3416;DHT22;1721;51.238;9.562;2023-12-14T01:34:14;10.30;94.80
3416;DHT22;1721;51.238;9.562;2023-12-14T01:36:41;10.30;95.10
3416;DHT22;1721;51.238;9.562;2023-12-14T01:39:09;10.30;94.70
3416;DHT22;1721;51.238;9.562;2023-12-14T01:41:36;10.30;94.60
3416;DHT22;1721;51.238;9.562;2023-12-14T01:44:02;10.30;94.70
3416;DHT22;1721;51.238;9.562;2023-12-14T01:46:31;10.40;94.60
3416;DHT22;1721;51.238;9.562;2023-12-14T01:48:57;10.40;94.70
3416;DHT22;1721;51.238;9.562;2023-12-14T01:51:24;10.40;94.60
3416;DHT22;1721;51.238;9.562;2023-12-14T01:53:52;10.40;94.60
3416;DHT22;1721;51.238;9.562;2023-12-14T01:56:19;10.40;94.60
3416;DHT22;1721;51.238;9.562;2023-12-14T01:58:45;10.40;94.50
3416;DHT22;1721;51.238;9.562;2023-12-14T02:04:11;10.30;94.60
3416;DHT22;1721;51.238;9.562;2023-12-14T02:06:38;10.30;94.60
3416;DHT22;1721;51.238;9.562;2023-12-14T02:09:05;10.30;94.70
3416;DHT22;1721;51.238;9.562;2023-12-14T02:11:34;10.30;94.80
3416;DHT22;1721;51.238;9.562;2023-12-14T02:14:08;10.30;94.80
3416;DHT22;1721;51.238;9.562;2023-12-14T02:16:34;10.30;94.90
3416;DHT22;1721;51.238;9.562;2023-12-14T02:19:04;10.30;94.80
3416;DHT22;1721;51.238;9.562;2023-12-14T02:21:30;10.20;94.90
3416;DHT22;1721;51.238;9.562;2023-12-14T02:23:56;10.20;95.00
3416;DHT22;1721;51.238;9.562;2023-12-14T02:26:23;10.30;95.00
3416;DHT22;1721;51.238;9.562;2023-12-14T02:28:49;10.20;94.90
3416;DHT22;1721;51.238;9.562;2023-12-14T02:31:15;10.20;95.00
3416;DHT22;1721;51.238;9.562;2023-12-14T02:33:41;10.00;94.70
3416;DHT22;1721;51.238;9.562;2023-12-14T02:36:09;9.90;95.90
3416;DHT22;1721;51.238;9.562;2023-12-14T02:38:38;9.90;96.00
3416;DHT22;1721;51.238;9.562;2023-12-14T02:41:04;10.00;95.50
3416;DHT22;1721;51.238;9.562;2023-12-14T02:43:31;10.00;95.40
3416;DHT22;1721;51.238;9.562;2023-12-14T02:46:00;10.10;95.40
3416;DHT22;1721;51.238;9.562;2023-12-14T02:48:28;10.00;95.10
3416;DHT22;1721;51.238;9.562;2023-12-14T02:51:17;9.90;95.80
3416;DHT22;1721;51.238;9.562;2023-12-14T02:53:44;9.90;95.90
3416;DHT22;1721;51.238;9.562;2023-12-14T02:56:10;9.90;95.70
3416;DHT22;1721;51.238;9.562;2023-12-14T02:58:40;9.90;95.80
3416;DHT22;1721;51.238;9.562;2023-12-14T03:01:06;9.90;95.90
3416;DHT22;1721;51.238;9.562;2023-12-14T03:03:38;9.70;95.90
3416;DHT22;1721;51.238;9.562;2023-12-14T03:06:07;9.70;96.30
3416;DHT22;1721;51.238;9.562;2023-12-14T03:08:33;9.80;96.40
3416;DHT22;1721;51.238;9.562;2023-12-14T03:11:00;9.80;96.30
3416;DHT22;1721;51.238;9.562;2023-12-14T03:13:27;9.80;96.40
3416;DHT22;1721;51.238;9.562;2023-12-14T03:15:54;9.80;96.40
3416;DHT22;1721;51.238;9.562;2023-12-14T03:18:21;9.80;96.00
3416;DHT22;1721;51.238;9.562;2023-12-14T03:20:50;9.70;96.20
3416;DHT22;1721;51.238;9.562;2023-12-14T03:23:17;9.70;96.20
3416;DHT22;1721;51.238;9.562;2023-12-14T03:25:46;9.60;96.00
3416;DHT22;1721;51.238;9.562;2023-12-14T03:28:13;9.40;96.10
3416;DHT22;1721;51.238;9.562;2023-12-14T03:30:39;9.40;96.30
3416;DHT22;1721;51.238;9.562;2023-12-14T03:33:06;9.40;96.30
3416;DHT22;1721;51.238;9.562;2023-12-14T03:35:33;9.50;96.10
3416;DHT22;1721;51.238;9.562;2023-12-14T03:38:08;9.30;96.10
3416;DHT22;1721;51.238;9.562;2023-12-14T03:40:34;9.10;96.20
3416;DHT22;1721;51.238;9.562;2023-12-14T03:43:01;9.10;96.20
3416;DHT22;1721;51.238;9.562;2023-12-14T03:45:29;9.00;96.60
3416;DHT22;1721;51.238;9.562;2023-12-14T03:48:01;8.80;96.80
3416;DHT22;1721;51.238;9.562;2023-12-14T03:50:30;8.80;96.90
3416;DHT22;1721;51.238;9.562;2023-12-14T03:52:57;8.80;96.70
3416;DHT22;1721;51.238;9.562;2023-12-14T03:55:23;8.80;97.00
3416;DHT22;1721;51.238;9.562;2023-12-14T03:57:49;8.80;96.50
3416;DHT22;1721;51.238;9.562;2023-12-14T04:00:16;8.80;96.80
3416;DHT22;1721;51.238;9.562;2023-12-14T04:02:43;8.80;96.90
3416;DHT22;1721;51.238;9.562;2023-12-14T04:05:09;8.70;96.80
3416;DHT22;1721;51.238;9.562;2023-12-14T04:07:36;8.60;96.80
3416;DHT22;1721;51.238;9.562;2023-12-14T04:10:15;8.60;96.90
3416;DHT22;1721;51.238;9.562;2023-12-14T04:12:41;8.50;97.00
3416;DHT22;1721;51.238;9.562;2023-12-14T04:15:15;8.50;97.00
3416;DHT22;1721;51.238;9.562;2023-12-14T04:17:44;8.60;96.90
3416;DHT22;1721;51.238;9.562;2023-12-14T04:20:13;8.40;96.70
3416;DHT22;1721;51.238;9.562;2023-12-14T04:22:44;8.40;96.90
3416;DHT22;1721;51.238;9.562;2023-12-14T04:25:13;8.50;96.80
3416;DHT22;1721;51.238;9.562;2023-12-14T04:27:39;8.50;97.00
3416;DHT22;1721;51.238;9.562;2023-12-14T04:30:08;8.50;96.80
3416;DHT22;1721;51.238;9.562;2023-12-14T04:32:39;8.40;97.10
3416;DHT22;1721;51.238;9.562;2023-12-14T04:35:05;8.50;97.10
3416;DHT22;1721;51.238;9.562;2023-12-14T04:37:34;8.50;96.90
3416;DHT22;1721;51.238;9.562;2023-12-14T04:40:01;8.70;96.80
3416;DHT22;1721;51.238;9.562;2023-12-14T04:42:28;8.50;96.50
3416;DHT22;1721;51.238;9.562;2023-12-14T04:44:54;8.40;96.40
3416;DHT22;1721;51.238;9.562;2023-12-14T04:47:20;8.40;97.00
3416;DHT22;1721;51.238;9.562;2023-12-14T04:49:49;8.20;97.20
3416;DHT22;1721;51.238;9.562;2023-12-14T04:52:15;8.00;97.20
3416;DHT22;1721;51.238;9.562;2023-12-14T04:54:44;7.90;97.20
3416;DHT22;1721;51.238;9.562;2023-12-14T04:57:13;7.90;97.60
3416;DHT22;1721;51.238;9.562;2023-12-14T04:59:45;8.00;97.60
3416;DHT22;1721;51.238;9.562;2023-12-14T05:02:14;7.90;97.30
3416;DHT22;1721;51.238;9.562;2023-12-14T05:04:40;7.80;97.50
3416;DHT22;1721;51.238;9.562;2023-12-14T05:07:09;7.70;97.50
3416;DHT22;1721;51.238;9.562;2023-12-14T05:09:35;7.70;97.60
3416;DHT22;1721;51.238;9.562;2023-12-14T05:12:04;7.80;97.70
3416;DHT22;1721;51.238;9.562;2023-12-14T05:14:32;7.70;97.50
3416;DHT22;1721;51.238;9.562;2023-12-14T05:16:59;7.70;97.30
3416;DHT22;1721;51.238;9.562;2023-12-14T05:19:27;7.70;97.40
3416;DHT22;1721;51.238;9.562;2023-12-14T05:21:59;7.70;97.40
3416;DHT22;1721;51.238;9.562;2023-12-14T05:24:25;7.60;97.60
3416;DHT22;1721;51.238;9.562;2023-12-14T05:26:51;7.60;97.80
3416;DHT22;1721;51.238;9.562;2023-12-14T05:29:20;7.60;97.60
3416;DHT22;1721;51.238;9.562;2023-12-14T05:31:49;7.50;97.70
3416;DHT22;1721;51.238;9.562;2023-12-14T05:34:15;7.60;97.80
3416;DHT22;1721;51.238;9.562;2023-12-14T05:36:43;7.70;97.50
3416;DHT22;1721;51.238;9.562;2023-12-14T05:39:12;7.80;97.20
3416;DHT22;1721;51.238;9.562;2023-12-14T05:41:44;7.80;97.00
3416;DHT22;1721;51.238;9.562;2023-12-14T05:44:13;7.70;96.80
3416;DHT22;1721;51.238;9.562;2023-12-14T05:46:44;7.60;96.90
3416;DHT22;1721;51.238;9.562;2023-12-14T05:49:13;7.50;97.30
3416;DHT22;1721;51.238;9.562;2023-12-14T05:51:40;7.60;97.60
3416;DHT22;1721;51.238;9.562;2023-12-14T05:54:06;7.60;97.40
3416;DHT22;1721;51.238;9.562;2023-12-14T05:56:32;7.60;97.10
3416;DHT22;1721;51.238;9.562;2023-12-14T05:59:03;7.40;97.20
3416;DHT22;1721;51.238;9.562;2023-12-14T06:01:29;7.40;97.60
3416;DHT22;1721;51.238;9.562;2023-12-14T06:03:58;7.40;97.30
3416;DHT22;1721;51.238;9.562;2023-12-14T06:06:31;7.20;97.10
3416;DHT22;1721;51.238;9.562;2023-12-14T06:09:00;7.20;97.60
3416;DHT22;1721;51.238;9.562;2023-12-14T06:11:28;7.20;97.30
3416;DHT22;1721;51.238;9.562;2023-12-14T06:14:00;7.20;97.50
3416;DHT22;1721;51.238;9.562;2023-12-14T06:16:29;7.20;97.20
3416;DHT22;1721;51.238;9.562;2023-12-14T06:18:58;7.00;97.40
3416;DHT22;1721;51.238;9.562;2023-12-14T06:21:24;7.10;97.80
3416;DHT22;1721;51.238;9.562;2023-12-14T06:23:56;7.00;97.60
3416;DHT22;1721;51.238;9.562;2023-12-14T06:26:26;7.00;97.80
3416;DHT22;1721;51.238;9.562;2023-12-14T06:28:52;7.00;97.40
3416;DHT22;1721;51.238;9.562;2023-12-14T06:31:18;7.00;97.40
3416;DHT22;1721;51.238;9.562;2023-12-14T06:33:54;7.00;97.30
3416;DHT22;1721;51.238;9.562;2023-12-14T06:36:20;7.00;97.30
3416;DHT22;1721;51.238;9.562;2023-12-14T06:38:52;6.90;97.30
3416;DHT22;1721;51.238;9.562;2023-12-14T06:41:29;6.90;97.20
3416;DHT22;1721;51.238;9.562;2023-12-14T06:43:57;6.70;97.50
3416;DHT22;1721;51.238;9.562;2023-12-14T06:46:26;6.80;97.60
3416;DHT22;1721;51.238;9.562;2023-12-14T06:48:54;6.90;97.80
3416;DHT22;1721;51.238;9.562;2023-12-14T06:51:21;7.00;97.60
3416;DHT22;1721;51.238;9.562;2023-12-14T06:53:51;7.00;97.30
3416;DHT22;1721;51.238;9.562;2023-12-14T06:56:17;7.00;97.20
3416;DHT22;1721;51.238;9.562;2023-12-14T06:58:44;7.10;97.20
3416;DHT22;1721;51.238;9.562;2023-12-14T07:01:14;7.00;96.90
3416;DHT22;1721;51.238;9.562;2023-12-14T07:03:46;6.90;97.30
3416;DHT22;1721;51.238;9.562;2023-12-14T07:06:14;7.00;97.60
3416;DHT22;1721;51.238;9.562;2023-12-14T07:08:41;7.00;97.40
3416;DHT22;1721;51.238;9.562;2023-12-14T07:11:11;7.00;97.10
3416;DHT22;1721;51.238;9.562;2023-12-14T07:13:40;6.90;96.90
3416;DHT22;1721;51.238;9.562;2023-12-14T07:16:10;6.80;97.10
3416;DHT22;1721;51.238;9.562;2023-12-14T07:18:37;6.70;97.20
3416;DHT22;1721;51.238;9.562;2023-12-14T07:21:06;6.80;97.40
3416;DHT22;1721;51.238;9.562;2023-12-14T07:23:32;6.90;97.40
3416;DHT22;1721;51.238;9.562;2023-12-14T07:26:01;7.10;97.20
3416;DHT22;1721;51.238;9.562;2023-12-14T07:28:28;7.10;97.00
3416;DHT22;1721;51.238;9.562;2023-12-14T07:30:55;7.00;96.80
3416;DHT22;1721;51.238;9.562;2023-12-14T07:33:23;7.10;96.60
3416;DHT22;1721;51.238;9.562;2023-12-14T07:35:49;7.10;96.60
3416;DHT22;1721;51.238;9.562;2023-12-14T07:38:18;7.10;96.50
3416;DHT22;1721;51.238;9.562;2023-12-14T07:40:44;7.10;96.40
3416;DHT22;1721;51.238;9.562;2023-12-14T07:43:17;7.20;96.20
3416;DHT22;1721;51.238;9.562;2023-12-14T07:45:43;7.20;96.20
3416;DHT22;1721;51.238;9.562;2023-12-14T07:48:12;7.10;95.60
3416;DHT22;1721;51.238;9.562;2023-12-14T07:50:38;7.10;95.80
3416;DHT22;1721;51.238;9.562;2023-12-14T07:53:04;7.00;96.20
3416;DHT22;1721;51.238;9.562;2023-12-14T07:55:31;7.00;96.30
3416;DHT22;1721;51.238;9.562;2023-12-14T07:57:59;7.10;95.80
3416;DHT22;1721;51.238;9.562;2023-12-14T08:00:28;7.00;95.70
3416;DHT22;1721;51.238;9.562;2023-12-14T08:02:56;7.00;96.30
3416;DHT22;1721;51.238;9.562;2023-12-14T08:05:22;7.10;96.00
3416;DHT22;1721;51.238;9.562;2023-12-14T08:07:51;7.20;95.80
3416;DHT22;1721;51.238;9.562;2023-12-14T08:10:18;7.20;95.70
3416;DHT22;1721;51.238;9.562;2023-12-14T08:12:47;7.20;95.80
3416;DHT22;1721;51.238;9.562;2023-12-14T08:15:24;7.20;95.60
3416;DHT22;1721;51.238;9.562;2023-12-14T08:17:55;7.30;95.80
3416;DHT22;1721;51.238;9.562;2023-12-14T08:20:24;7.30;95.60
3416;DHT22;1721;51.238;9.562;2023-12-14T08:22:56;7.40;95.60
3416;DHT22;1721;51.238;9.562;2023-12-14T08:25:22;7.30;95.30
3416;DHT22;1721;51.238;9.562;2023-12-14T08:27:51;7.20;95.10
3416;DHT22;1721;51.238;9.562;2023-12-14T08:30:21;7.20;95.30
3416;DHT22;1721;51.238;9.562;2023-12-14T08:32:49;7.20;95.10
3416;DHT22;1721;51.238;9.562;2023-12-14T08:35:18;7.20;95.10
3416;DHT22;1721;51.238;9.562;2023-12-14T08:37:47;7.00;95.40
3416;DHT22;1721;51.238;9.562;2023-12-14T08:40:22;6.90;95.80
3416;DHT22;1721;51.238;9.562;2023-12-14T08:42:48;7.00;95.70
3416;DHT22;1721;51.238;9.562;2023-12-14T08:45:17;6.90;95.60
3416;DHT22;1721;51.238;9.562;2023-12-14T08:47:45;6.90;95.80
3416;DHT22;1721;51.238;9.562;2023-12-14T08:50:11;6.90;95.90
3416;DHT22;1721;51.238;9.562;2023-12-14T08:52:38;6.80;95.80
3416;DHT22;1721;51.238;9.562;2023-12-14T08:55:07;6.80;96.40
3416;DHT22;1721;51.238;9.562;2023-12-14T08:57:35;6.90;96.20
3416;DHT22;1721;51.238;9.562;2023-12-14T09:00:04;7.00;96.30
3416;DHT22;1721;51.238;9.562;2023-12-14T09:02:30;7.00;96.00
3416;DHT22;1721;51.238;9.562;2023-12-14T09:04:57;7.00;96.00
3416;DHT22;1721;51.238;9.562;2023-12-14T09:07:23;7.00;96.30
3416;DHT22;1721;51.238;9.562;2023-12-14T09:09:49;6.80;96.10
3416;DHT22;1721;51.238;9.562;2023-12-14T09:12:22;6.80;96.00
3416;DHT22;1721;51.238;9.562;2023-12-14T09:14:48;6.70;96.00
3416;DHT22;1721;51.238;9.562;2023-12-14T09:17:15;6.70;96.00
3416;DHT22;1721;51.238;9.562;2023-12-14T09:19:44;6.80;96.40
3416;DHT22;1721;51.238;9.562;2023-12-14T09:22:19;6.80;95.80
3416;DHT22;1721;51.238;9.562;2023-12-14T09:24:47;6.70;95.60
3416;DHT22;1721;51.238;9.562;2023-12-14T09:27:19;6.50;95.80
3416;DHT22;1721;51.238;9.562;2023-12-14T09:29:48;6.60;95.90
3416;DHT22;1721;51.238;9.562;2023-12-14T09:32:17;6.50;95.70
3416;DHT22;1721;51.238;9.562;2023-12-14T09:34:48;6.50;95.50
3416;DHT22;1721;51.238;9.562;2023-12-14T09:37:23;6.40;95.70
3416;DHT22;1721;51.238;9.562;2023-12-14T09:39:52;6.30;95.60
3416;DHT22;1721;51.238;9.562;2023-12-14T09:42:19;6.20;95.90
3416;DHT22;1721;51.238;9.562;2023-12-14T09:44:47;6.20;96.00
3416;DHT22;1721;51.238;9.562;2023-12-14T09:47:14;6.20;96.10
3416;DHT22;1721;51.238;9.562;2023-12-14T09:49:41;6.20;96.00
3416;DHT22;1721;51.238;9.562;2023-12-14T09:52:09;6.30;95.80
3416;DHT22;1721;51.238;9.562;2023-12-14T09:54:35;6.30;95.70
3416;DHT22;1721;51.238;9.562;2023-12-14T09:57:01;6.40;95.80
3416;DHT22;1721;51.238;9.562;2023-12-14T09:59:37;6.40;95.40
3416;DHT22;1721;51.238;9.562;2023-12-14T10:02:13;6.40;95.60
3416;DHT22;1721;51.238;9.562;2023-12-14T10:04:46;6.50;95.20
3416;DHT22;1721;51.238;9.562;2023-12-14T10:07:12;6.30;95.00
3416;DHT22;1721;51.238;9.562;2023-12-14T10:09:41;6.40;95.70
3416;DHT22;1721;51.238;9.562;2023-12-14T10:12:10;6.60;95.50
3416;DHT22;1721;51.238;9.562;2023-12-14T10:14:42;6.60;94.90
3416;DHT22;1721;51.238;9.562;2023-12-14T10:17:24;6.70;95.10
3416;DHT22;1721;51.238;9.562;2023-12-14T10:20:02;6.70;95.00
3416;DHT22;1721;51.238;9.562;2023-12-14T10:22:37;6.80;95.00
3416;DHT22;1721;51.238;9.562;2023-12-14T10:25:04;6.70;94.40
3416;DHT22;1721;51.238;9.562;2023-12-14T10:27:37;6.80;94.70
3416;DHT22;1721;51.238;9.562;2023-12-14T10:30:12;6.70;94.50
3416;DHT22;1721;51.238;9.562;2023-12-14T10:32:42;6.60;94.60
3416;DHT22;1721;51.238;9.562;2023-12-14T10:35:08;6.50;94.50
3416;DHT22;1721;51.238;9.562;2023-12-14T10:37:37;6.60;94.70
3416;DHT22;1721;51.238;9.562;2023-12-14T10:40:08;6.60;94.80
3416;DHT22;1721;51.238;9.562;2023-12-14T10:42:39;6.60;94.50
3416;DHT22;1721;51.238;9.562;2023-12-14T10:45:16;6.60;94.30
3416;DHT22;1721;51.238;9.562;2023-12-14T10:47:48;6.70;94.30
3416;DHT22;1721;51.238;9.562;2023-12-14T10:50:15;6.70;94.10
3416;DHT22;1721;51.238;9.562;2023-12-14T10:52:41;6.80;94.30
3416;DHT22;1721;51.238;9.562;2023-12-14T10:57:58;6.70;94.20
3416;DHT22;1721;51.238;9.562;2023-12-14T11:00:24;6.70;94.20
3416;DHT22;1721;51.238;9.562;2023-12-14T11:02:59;6.50;94.40
3416;DHT22;1721;51.238;9.562;2023-12-14T11:05:27;6.50;94.40
3416;DHT22;1721;51.238;9.562;2023-12-14T11:08:01;6.60;94.30
3416;DHT22;1721;51.238;9.562;2023-12-14T11:10:43;6.70;94.10
3416;DHT22;1721;51.238;9.562;2023-12-14T11:13:17;6.60;93.90
3416;DHT22;1721;51.238;9.562;2023-12-14T11:15:51;6.70;94.20
3416;DHT22;1721;51.238;9.562;2023-12-14T11:21:01;6.60;94.20
3416;DHT22;1721;51.238;9.562;2023-12-14T11:23:29;6.60;94.00
3416;DHT22;1721;51.238;9.562;2023-12-14T11:26:03;6.50;94.10
3416;DHT22;1721;51.238;9.562;2023-12-14T11:28:39;6.50;94.30
3416;DHT22;1721;51.238;9.562;2023-12-14T11:31:13;6.40;94.00
3416;DHT22;1721;51.238;9.562;2023-12-14T11:33:43;6.40;94.20
3416;DHT22;1721;51.238;9.562;2023-12-14T11:36:12;6.40;94.20
3416;DHT22;1721;51.238;9.562;2023-12-14T11:38:41;6.30;94.30
3416;DHT22;1721;51.238;9.562;2023-12-14T11:41:07;6.40;94.30
3416;DHT22;1721;51.238;9.562;2023-12-14T11:43:41;6.30;94.10
3416;DHT22;1721;51.238;9.562;2023-12-14T11:46:08;6.30;94.40
3416;DHT22;1721;51.238;9.562;2023-12-14T11:48:34;6.20;94.50
3416;DHT22;1721;51.238;9.562;2023-12-14T11:51:00;6.10;94.50
3416;DHT22;1721;51.238;9.562;2023-12-14T11:53:30;6.20;94.70
3416;DHT22;1721;51.238;9.562;2023-12-14T11:55:56;6.20;94.70
3416;DHT22;1721;51.238;9.562;2023-12-14T11:58:24;6.20;94.50
3416;DHT22;1721;51.238;9.562;2023-12-14T12:00:51;6.20;94.60
3416;DHT22;1721;51.238;9.562;2023-12-14T12:03:19;6.10;94.40
3416;DHT22;1721;51.238;9.562;2023-12-14T12:05:51;6.20;94.60
3416;DHT22;1721;51.238;9.562;2023-12-14T12:08:19;6.20;94.40
3416;DHT22;1721;51.238;9.562;2023-12-14T12:10:51;6.30;94.40
3416;DHT22;1721;51.238;9.562;2023-12-14T12:13:23;6.40;94.10
3416;DHT22;1721;51.238;9.562;2023-12-14T12:15:52;6.50;94.10
3416;DHT22;1721;51.238;9.562;2023-12-14T12:18:24;6.40;94.00
3416;DHT22;1721;51.238;9.562;2023-12-14T12:20:56;6.50;93.70
3416;DHT22;1721;51.238;9.562;2023-12-14T12:23:26;6.50;93.40
3416;DHT22;1721;51.238;9.562;2023-12-14T12:25:55;6.50;93.60
3416;DHT22;1721;51.238;9.562;2023-12-14T12:28:24;6.60;93.80
3416;DHT22;1721;51.238;9.562;2023-12-14T12:30:51;6.60;93.10
3416;DHT22;1721;51.238;9.562;2023-12-14T12:33:23;6.50;93.00
3416;DHT22;1721;51.238;9.562;2023-12-14T12:35:49;6.40;93.20
3416;DHT22;1721;51.238;9.562;2023-12-14T12:38:15;6.50;93.30
3416;DHT22;1721;51.238;9.562;2023-12-14T12:40:42;6.60;93.20
3416;DHT22;1721;51.238;9.562;2023-12-14T12:43:17;6.60;93.10
3416;DHT22;1721;51.238;9.562;2023-12-14T12:45:48;6.40;93.00
3416;DHT22;1721;51.238;9.562;2023-12-14T12:48:17;6.50;93.40
3416;DHT22;1721;51.238;9.562;2023-12-14T12:50:43;6.40;92.90
3416;DHT22;1721;51.238;9.562;2023-12-14T12:53:09;6.40;93.20
3416;DHT22;1721;51.238;9.562;2023-12-14T12:55:35;6.40;93.50
3416;DHT22;1721;51.238;9.562;2023-12-14T12:58:04;6.40;93.50
3416;DHT22;1721;51.238;9.562;2023-12-14T13:00:35;6.40;93.20
3416;DHT22;1721;51.238;9.562;2023-12-14T13:03:07;6.30;93.40
3416;DHT22;1721;51.238;9.562;2023-12-14T13:05:37;6.30;93.60
3416;DHT22;1721;51.238;9.562;2023-12-14T13:08:05;6.40;93.40
3416;DHT22;1721;51.238;9.562;2023-12-14T13:10:37;6.10;93.50
3416;DHT22;1721;51.238;9.562;2023-12-14T13:13:04;6.10;93.60
3416;DHT22;1721;51.238;9.562;2023-12-14T13:15:36;6.10;94.00
3416;DHT22;1721;51.238;9.562;2023-12-14T13:18:07;6.10;93.60
3416;DHT22;1721;51.238;9.562;2023-12-14T13:20:38;5.90;93.70
3416;DHT22;1721;51.238;9.562;2023-12-14T13:23:07;5.90;93.70
3416;DHT22;1721;51.238;9.562;2023-12-14T13:25:38;5.90;93.60
3416;DHT22;1721;51.238;9.562;2023-12-14T13:28:10;5.90;93.70
3416;DHT22;1721;51.238;9.562;2023-12-14T13:30:36;6.00;93.70
3416;DHT22;1721;51.238;9.562;2023-12-14T13:33:10;6.00;93.60
3416;DHT22;1721;51.238;9.562;2023-12-14T13:35:42;6.10;93.40
3416;DHT22;1721;51.238;9.562;2023-12-14T13:38:10;6.20;93.10
3416;DHT22;1721;51.238;9.562;2023-12-14T13:40:39;6.00;93.50
3416;DHT22;1721;51.238;9.562;2023-12-14T13:43:05;5.90;93.70
3416;DHT22;1721;51.238;9.562;2023-12-14T13:45:37;5.90;93.70
3416;DHT22;1721;51.238;9.562;2023-12-14T13:48:05;5.80;93.80
3416;DHT22;1721;51.238;9.562;2023-12-14T13:50:35;5.80;93.80
3416;DHT22;1721;51.238;9.562;2023-12-14T13:53:01;5.80;94.10
3416;DHT22;1721;51.238;9.562;2023-12-14T13:55:30;6.00;94.30
3416;DHT22;1721;51.238;9.562;2023-12-14T13:58:02;6.10;93.80
3416;DHT22;1721;51.238;9.562;2023-12-14T14:00:29;6.00;93.50
3416;DHT22;1721;51.238;9.562;2023-12-14T14:03:04;5.90;93.80
3416;DHT22;1721;51.238;9.562;2023-12-14T14:05:31;5.90;93.90
3416;DHT22;1721;51.238;9.562;2023-12-14T14:07:58;5.90;94.00
3416;DHT22;1721;51.238;9.562;2023-12-14T14:10:24;5.90;94.10
3416;DHT22;1721;51.238;9.562;2023-12-14T14:12:49;5.90;94.30
3416;DHT22;1721;51.238;9.562;2023-12-14T14:15:16;5.90;94.20
3416;DHT22;1721;51.238;9.562;2023-12-14T14:17:41;5.80;94.10
3416;DHT22;1721;51.238;9.562;2023-12-14T14:20:07;5.80;94.50
3416;DHT22;1721;51.238;9.562;2023-12-14T14:22:38;5.80;94.50
3416;DHT22;1721;51.238;9.562;2023-12-14T14:25:05;5.80;94.50
3416;DHT22;1721;51.238;9.562;2023-12-14T14:27:32;5.80;94.60
3416;DHT22;1721;51.238;9.562;2023-12-14T14:29:58;5.80;94.90
3416;DHT22;1721;51.238;9.562;2023-12-14T14:32:23;5.90;94.60
3416;DHT22;1721;51.238;9.562;2023-12-14T14:34:49;5.80;94.70
3416;DHT22;1721;51.238;9.562;2023-12-14T14:37:15;5.70;94.60
3416;DHT22;1721;51.238;9.562;2023-12-14T14:39:40;5.70;94.80
3416;DHT22;1721;51.238;9.562;2023-12-14T14:42:08;5.80;94.70
3416;DHT22;1721;51.238;9.562;2023-12-14T14:44:34;5.80;94.90
3416;DHT22;1721;51.238;9.562;2023-12-14T14:47:00;5.80;94.80
3416;DHT22;1721;51.238;9.562;2023-12-14T14:49:27;5.90;94.60
3416;DHT22;1721;51.238;9.562;2023-12-14T14:51:53;5.90;94.60
3416;DHT22;1721;51.238;9.562;2023-12-14T14:54:18;6.00;94.60
3416;DHT22;1721;51.238;9.562;2023-12-14T14:56:44;5.90;94.70
3416;DHT22;1721;51.238;9.562;2023-12-14T14:59:10;6.00;94.80
3416;DHT22;1721;51.238;9.562;2023-12-14T15:01:37;6.00;94.60
3416;DHT22;1721;51.238;9.562;2023-12-14T15:04:03;5.90;94.30
3416;DHT22;1721;51.238;9.562;2023-12-14T15:06:28;5.90;94.80
3416;DHT22;1721;51.238;9.562;2023-12-14T15:08:54;5.90;94.50
3416;DHT22;1721;51.238;9.562;2023-12-14T15:11:20;6.00;94.80
3416;DHT22;1721;51.238;9.562;2023-12-14T15:13:46;6.10;94.50
3416;DHT22;1721;51.238;9.562;2023-12-14T15:16:11;6.30;94.50
3416;DHT22;1721;51.238;9.562;2023-12-14T15:18:37;6.40;94.20
3416;DHT22;1721;51.238;9.562;2023-12-14T15:21:12;6.50;94.20
3416;DHT22;1721;51.238;9.562;2023-12-14T15:23:37;6.60;94.10
3416;DHT22;1721;51.238;9.562;2023-12-14T15:26:03;6.50;93.80
3416;DHT22;1721;51.238;9.562;2023-12-14T15:28:30;6.40;93.70
3416;DHT22;1721;51.238;9.562;2023-12-14T15:30:56;6.60;94.00
3416;DHT22;1721;51.238;9.562;2023-12-14T15:33:22;6.50;93.60
3416;DHT22;1721;51.238;9.562;2023-12-14T15:35:47;6.50;93.70
3416;DHT22;1721;51.238;9.562;2023-12-14T15:38:13;6.50;93.50
3416;DHT22;1721;51.238;9.562;2023-12-14T15:40:40;6.40;93.20
3416;DHT22;1721;51.238;9.562;2023-12-14T15:43:06;6.30;93.30
3416;DHT22;1721;51.238;9.562;2023-12-14T15:45:32;6.30;93.50
3416;DHT22;1721;51.238;9.562;2023-12-14T15:48:02;6.30;93.90
3416;DHT22;1721;51.238;9.562;2023-12-14T15:50:28;6.30;93.90
3416;DHT22;1721;51.238;9.562;2023-12-14T15:52:54;6.30;93.70
3416;DHT22;1721;51.238;9.562;2023-12-14T15:55:20;6.40;93.60
3416;DHT22;1721;51.238;9.562;2023-12-14T15:57:50;6.50;93.70
3416;DHT22;1721;51.238;9.562;2023-12-14T16:00:17;6.40;93.20
3416;DHT22;1721;51.238;9.562;2023-12-14T16:02:42;6.40;93.40
3416;DHT22;1721;51.238;9.562;2023-12-14T16:05:08;6.60;93.30
3416;DHT22;1721;51.238;9.562;2023-12-14T16:07:35;6.50;92.50
3416;DHT22;1721;51.238;9.562;2023-12-14T16:10:01;6.50;93.10
3416;DHT22;1721;51.238;9.562;2023-12-14T16:12:27;6.60;92.90
3416;DHT22;1721;51.238;9.562;2023-12-14T16:14:53;6.60;92.80
3416;DHT22;1721;51.238;9.562;2023-12-14T16:17:22;6.50;92.60
3416;DHT22;1721;51.238;9.562;2023-12-14T16:19:48;6.50;93.20
3416;DHT22;1721;51.238;9.562;2023-12-14T16:22:14;6.70;93.20
3416;DHT22;1721;51.238;9.562;2023-12-14T16:24:39;6.80;93.10
3416;DHT22;1721;51.238;9.562;2023-12-14T16:27:05;6.80;92.70
3416;DHT22;1721;51.238;9.562;2023-12-14T16:29:30;6.80;92.20
3416;DHT22;1721;51.238;9.562;2023-12-14T16:31:58;6.80;92.50